KSEA - KNUW

Guest
Details From KSEA - Seattle Tacoma Intl
To KNUW - Whidbey Island Nas
Flight Number -
Tags Generated
Created
Modified
Stats Distance 56 nm / 103 km
Max Altitude 0 ft / 0 m
Waypoints 2
Social Downloads 1
Likes 0
Share VATSIM

Download

Looking for another format? Having issues loading an existing format? Contact us
Advertisement - Login to hide

Notes

Generated

Route

KSEA KNUW

ID Type Via Altitude Latitude Longitude Leg Dist Tot Dist Heading (true) Name
O KSEA APT - 0 ft / 0 m 47.46383˚ -122.31786˚ - 0 nm - -
O KNUW APT - 0 ft / 0 m 48.36167˚ -122.66246˚ 55 nm 55 nm 346° / 345° -

Altitude Profile

KSEA

Details ICAO KSEA (SEA)
Name Seattle Tacoma Intl
Region United States
Timezone America/Los_Angeles (UTC-8.0)
Stats Elevation 433 ft / 132 m (AMSL)
Location 47.450188° -122.312320°
Runways 3
Magnetic Variation 15.810° E

METAR

KSEA 240553Z 00000KT 10SM CLR 04/02 A2998

Decode

TAF

TAF KSEA 240540Z 2406/2512 06004KT P6SM VCFG SKC FM240900 VRB03KT 6SM BR FEW005 FM241200 VRB03KT 3SM BR OVC005 TEMPO 2414/2418 1SM BR OVC003 FM241900 VRB03KT 6SM BR OVC009 FM242100 VRB03KT P6SM FEW013 BKN120 FM250000 VRB03KT P6SM FEW060 BKN120

Decode

Departure Runways

ID Width Length Bearing (true) Bearing (mag) Surface Threshold Offset Overrun Length
16C 151 ft / 46 m 9,429 ft / 2,874 m 180.34° 164.53° Concrete 0 ft / 0 m 223 ft / 68 m
16L 151 ft / 46 m 11,904 ft / 3,628 m 180.34° 164.53° Concrete 0 ft / 0 m 151 ft / 46 m
16R 151 ft / 46 m 8,503 ft / 2,592 m 180.34° 164.53° Concrete 0 ft / 0 m 164 ft / 50 m
34C 151 ft / 46 m 9,429 ft / 2,874 m 0.34° 344.53° Concrete 0 ft / 0 m 394 ft / 120 m
34L 151 ft / 46 m 8,503 ft / 2,592 m 0.34° 344.53° Concrete 0 ft / 0 m 394 ft / 120 m
34R 151 ft / 46 m 11,904 ft / 3,628 m 0.34° 344.53° Concrete 0 ft / 0 m 400 ft / 122 m

KNUW

Details ICAO KNUW (NUW)
Name WHIDBEY ISLAND NAS
Region United States
Timezone America/Los_Angeles (UTC-8.0)
Stats Elevation 47 ft / 14 m (AMSL)
Location 48.351803° -122.655907°
Runways 2
Magnetic Variation 16.097° E

METAR

KNUW 240556Z 12006KT 8SM FEW250 02/00 A3002

Decode

TAF

Not found

Destination Runways

ID Width Length Bearing (true) Bearing (mag) Surface Threshold Offset Overrun Length
07 200 ft / 61 m 7,977 ft / 2,432 m 86.95° 70.85° Concrete 0 ft / 0 m 1,000 ft / 305 m
13 200 ft / 61 m 7,999 ft / 2,438 m 154.71° 138.61° Concrete 0 ft / 0 m 1,000 ft / 305 m
25 200 ft / 61 m 7,977 ft / 2,432 m 266.97° 250.87° Concrete 0 ft / 0 m 1,000 ft / 305 m
31 200 ft / 61 m 7,999 ft / 2,438 m 334.72° 318.62° Concrete 0 ft / 0 m 1,000 ft / 305 m

Approach Navaids

Runway Type Ident Frequency Range Bearing (true) Bearing (mag) Slope Elevation
13 Localiser INUW 110.10 MHz 18 nm / 33 km 154.72° 138.62° - 47 ft / 14 m (AMSL)
13 Glidescope INUW 110.10 MHz 10 nm / 19 km 154.71° 138.62° 3.00° 47 ft / 14 m (AMSL)

Popular Alternatives